createdAt,value
2019-02-19T00:03:04.667Z,5.93
2019-02-19T00:08:23.285Z,4.50
2019-02-19T00:13:42.143Z,5.30
2019-02-19T00:19:00.770Z,4.97
2019-02-19T00:24:19.327Z,4.80
2019-02-19T00:29:37.956Z,4.87
2019-02-19T00:34:56.524Z,4.57
2019-02-19T00:40:15.145Z,4.53
2019-02-19T00:45:33.761Z,5.13
2019-02-19T00:50:52.375Z,5.13
2019-02-19T00:56:11.124Z,4.83
2019-02-19T01:01:29.755Z,5.40
2019-02-19T01:06:48.390Z,4.90
2019-02-19T01:12:07.017Z,5.00
2019-02-19T01:17:25.655Z,4.73
2019-02-19T01:22:44.190Z,4.00
2019-02-19T01:28:02.820Z,5.45
2019-02-19T01:33:21.483Z,4.70
2019-02-19T01:38:40.128Z,5.73
2019-02-19T01:43:58.695Z,5.03
2019-02-19T01:49:17.310Z,5.60
2019-02-19T01:54:37.078Z,5.60
2019-02-19T01:59:55.672Z,5.90
2019-02-19T02:05:14.248Z,6.43
2019-02-19T02:10:32.803Z,6.80
2019-02-19T02:15:51.423Z,6.80
2019-02-19T02:21:10.049Z,7.60
2019-02-19T02:26:28.718Z,8.03
2019-02-19T02:31:47.351Z,8.93
2019-02-19T02:37:05.994Z,10.40
2019-02-19T02:42:24.463Z,12.33
2019-02-19T02:47:43.098Z,12.10
2019-02-19T02:53:01.668Z,12.83
2019-02-19T02:58:20.295Z,12.17
2019-02-19T03:03:38.834Z,11.80
2019-02-19T03:08:57.368Z,11.65
2019-02-19T03:14:16.012Z,12.33
2019-02-19T03:19:34.653Z,9.87
2019-02-19T03:24:53.294Z,11.83
2019-02-19T03:30:11.918Z,10.70
2019-02-19T03:35:30.559Z,10.37
2019-02-19T03:40:49.043Z,7.93
2019-02-19T03:46:12.180Z,9.83
2019-02-19T03:51:27.981Z,10.47
2019-02-19T03:56:46.595Z,10.83
2019-02-19T04:02:05.207Z,11.43
2019-02-19T04:07:23.829Z,11.60
2019-02-19T04:12:42.816Z,12.60
2019-02-19T04:18:01.735Z,13.30
2019-02-19T04:23:20.383Z,14.63
2019-02-19T04:28:39.076Z,15.73
2019-02-19T04:33:57.634Z,15.53
2019-02-19T04:39:16.262Z,15.23
2019-02-19T04:44:34.887Z,15.30
2019-02-19T04:49:53.509Z,16.03
2019-02-19T04:55:12.151Z,14.93
2019-02-19T05:00:30.725Z,16.20
2019-02-19T05:05:49.409Z,15.10
2019-02-19T05:11:08.043Z,15.60
2019-02-19T05:16:26.699Z,15.63
2019-02-19T05:21:45.251Z,14.53
2019-02-19T05:27:03.881Z,14.63
2019-02-19T05:32:22.523Z,13.90
2019-02-19T05:37:41.181Z,15.75
2019-02-19T05:43:01.502Z,15.73
2019-02-19T05:48:20.039Z,16.67
2019-02-19T05:53:38.558Z,17.07
2019-02-19T05:58:57.184Z,17.80
2019-02-19T06:04:16.091Z,16.57
2019-02-19T06:09:34.597Z,17.90
2019-02-19T06:14:53.211Z,21.30
2019-02-19T06:20:11.941Z,20.97
2019-02-19T06:25:32.379Z,22.47
2019-02-19T06:30:50.999Z,22.03
2019-02-19T06:36:12.610Z,23.13
2019-02-19T06:41:31.270Z,24.17
2019-02-19T06:46:49.830Z,21.17
2019-02-19T06:52:08.401Z,23.17
2019-02-19T06:57:26.985Z,24.83
2019-02-19T07:02:50.204Z,22.32
2019-02-19T07:08:08.827Z,21.77
2019-02-19T07:13:27.467Z,15.80
2019-02-19T07:18:46.034Z,19.83
2019-02-19T07:24:04.834Z,20.37
2019-02-19T07:29:23.470Z,18.67
2019-02-19T07:34:42.077Z,18.07
2019-02-19T07:40:00.720Z,17.50
2019-02-19T07:45:19.377Z,13.90
2019-02-19T07:50:37.819Z,14.80
2019-02-19T07:55:56.372Z,15.23
2019-02-19T08:01:14.967Z,15.17
2019-02-19T08:06:33.577Z,12.77
2019-02-19T08:11:52.193Z,13.23
2019-02-19T08:17:10.816Z,12.40
2019-02-19T08:22:29.349Z,14.30
2019-02-19T08:27:48.266Z,13.80
2019-02-19T08:33:06.885Z,11.77
2019-02-19T08:38:25.518Z,11.80
2019-02-19T08:43:44.136Z,13.80
2019-02-19T08:49:02.683Z,10.67
2019-02-19T08:54:21.307Z,13.17
2019-02-19T08:59:39.854Z,12.00
2019-02-19T09:04:58.406Z,12.03
2019-02-19T09:10:17.286Z,11.57
2019-02-19T09:15:35.828Z,10.37
2019-02-19T09:20:54.386Z,8.63
2019-02-19T09:26:12.971Z,11.50
2019-02-19T09:31:31.608Z,10.07
2019-02-19T09:36:50.229Z,6.95
2019-02-19T09:42:08.731Z,7.03
2019-02-19T09:47:27.284Z,5.90
2019-02-19T09:52:45.925Z,5.47
2019-02-19T09:58:04.533Z,5.93
2019-02-19T10:03:23.598Z,7.63
2019-02-19T10:08:42.153Z,5.03
2019-02-19T10:14:00.688Z,2.83
2019-02-19T10:19:19.318Z,6.13
2019-02-19T10:24:37.928Z,6.83
2019-02-19T10:29:56.786Z,5.43
2019-02-19T10:35:15.260Z,5.30
2019-02-19T10:40:33.733Z,4.13
2019-02-19T10:45:52.350Z,5.73
2019-02-19T10:51:11.629Z,6.53
2019-02-19T10:56:30.220Z,5.70
2019-02-19T11:01:48.973Z,5.10
2019-02-19T11:07:07.522Z,2.47
2019-02-19T11:12:26.069Z,4.23
2019-02-19T11:17:44.705Z,3.20
2019-02-19T11:23:03.324Z,4.17
2019-02-19T11:28:22.030Z,4.67
2019-02-19T11:33:40.609Z,4.90
2019-02-19T11:38:59.165Z,2.73
2019-02-19T11:44:17.907Z,6.13
2019-02-19T11:49:36.478Z,5.20
2019-02-19T11:54:55.027Z,4.80
2019-02-19T12:00:20.146Z,5.00
2019-02-19T12:05:38.759Z,3.23
2019-02-19T12:10:57.917Z,5.27
2019-02-19T12:16:16.549Z,4.73
2019-02-19T12:21:35.182Z,4.00
2019-02-19T12:26:53.733Z,3.70
2019-02-19T12:32:12.361Z,4.47
2019-02-19T12:37:30.962Z,3.50
2019-02-19T12:42:49.584Z,3.77
2019-02-19T12:48:08.201Z,3.33
2019-02-19T12:53:26.752Z,3.40
2019-02-19T12:58:45.319Z,4.00
2019-02-19T13:04:03.859Z,3.50
2019-02-19T13:09:22.411Z,3.50
2019-02-19T13:14:41.258Z,3.63
2019-02-19T13:19:59.890Z,3.40
2019-02-19T13:25:18.512Z,3.00
2019-02-19T13:30:37.063Z,3.10
2019-02-19T13:35:58.342Z,3.37
2019-02-19T13:41:17.087Z,2.50
2019-02-19T13:46:36.036Z,3.30
2019-02-19T13:51:56.219Z,2.33
2019-02-19T13:57:14.923Z,3.10
2019-02-19T14:02:33.479Z,3.67
2019-02-19T14:07:52.164Z,3.27
2019-02-19T14:13:10.803Z,3.30
2019-02-19T14:18:48.423Z,3.03
2019-02-19T14:24:26.731Z,3.07
2019-02-19T14:29:49.822Z,2.30
2019-02-19T14:35:28.839Z,2.87
2019-02-19T14:41:05.249Z,3.57
2019-02-19T14:46:25.646Z,3.23
2019-02-19T14:51:55.547Z,3.07
2019-02-19T14:57:28.069Z,4.73
2019-02-19T15:03:04.312Z,3.03
2019-02-19T15:08:36.766Z,2.57
2019-02-19T15:14:02.700Z,2.53
2019-02-19T15:19:39.253Z,3.70
2019-02-19T15:24:59.704Z,2.43
2019-02-19T15:30:28.743Z,5.60
2019-02-19T15:36:04.055Z,2.87
2019-02-19T15:41:39.797Z,2.53
2019-02-19T15:47:16.073Z,2.87
2019-02-19T15:52:38.950Z,2.80
2019-02-19T15:58:05.070Z,3.50
2019-02-19T16:03:29.850Z,2.83
2019-02-19T16:08:58.384Z,2.20
2019-02-19T16:14:35.096Z,2.50
2019-02-19T16:20:00.511Z,3.07
2019-02-19T16:25:39.468Z,3.05
2019-02-19T16:31:08.201Z,2.27
2019-02-19T16:36:40.644Z,2.57
2019-02-19T16:42:06.701Z,2.83
2019-02-19T16:47:41.952Z,3.13
2019-02-19T16:53:02.222Z,4.10
2019-02-19T16:58:28.359Z,3.10
2019-02-19T17:03:59.711Z,3.37
2019-02-19T17:09:19.907Z,4.00
2019-02-19T17:14:56.699Z,4.43
2019-02-19T17:20:29.351Z,4.30
2019-02-19T17:25:47.940Z,4.20
2019-02-19T17:31:08.261Z,5.37
2019-02-19T17:36:28.523Z,4.60
2019-02-19T17:41:57.606Z,3.80
2019-02-19T17:47:33.104Z,3.83
2019-02-19T17:53:05.669Z,3.67
2019-02-19T17:58:25.858Z,4.60
2019-02-19T18:03:46.126Z,4.58
2019-02-19T18:09:23.690Z,4.30
2019-02-19T18:14:55.650Z,4.57
2019-02-19T18:20:14.394Z,4.35
2019-02-19T18:25:33.175Z,4.30
2019-02-19T18:30:51.804Z,4.27
2019-02-19T18:36:10.356Z,4.13
2019-02-19T18:41:28.980Z,4.67
2019-02-19T18:46:47.557Z,3.90
2019-02-19T18:52:06.187Z,4.00
2019-02-19T18:57:24.776Z,3.70
2019-02-19T19:02:43.398Z,3.93
2019-02-19T19:08:01.890Z,3.87
2019-02-19T19:13:20.492Z,4.40
2019-02-19T19:18:39.198Z,4.17
2019-02-19T19:23:58.144Z,4.00
2019-02-19T19:29:17.000Z,4.47
2019-02-19T19:34:35.685Z,4.37
2019-02-19T19:39:54.204Z,4.23
2019-02-19T19:45:13.146Z,4.67
2019-02-19T19:50:31.652Z,4.30
2019-02-19T19:55:50.209Z,4.40
2019-02-19T20:01:09.331Z,4.67
2019-02-19T20:06:29.437Z,5.33
2019-02-19T20:11:48.051Z,4.37
2019-02-19T20:17:06.536Z,4.23
2019-02-19T20:22:25.129Z,4.10
2019-02-19T20:27:43.775Z,3.70
2019-02-19T20:33:02.394Z,3.63
2019-02-19T20:38:21.054Z,3.93
2019-02-19T20:43:39.760Z,4.30
2019-02-19T20:48:58.377Z,4.93
2019-02-19T20:54:17.042Z,4.70
2019-02-19T20:59:35.631Z,5.10
2019-02-19T21:04:54.188Z,5.27
2019-02-19T21:10:17.596Z,4.30
2019-02-19T21:15:42.661Z,3.98
2019-02-19T21:21:02.130Z,4.50
2019-02-19T21:26:20.737Z,5.23
2019-02-19T21:31:40.426Z,4.80
2019-02-19T21:37:04.813Z,4.45
2019-02-19T21:42:24.110Z,4.83
2019-02-19T21:47:42.880Z,6.40
2019-02-19T21:53:01.652Z,5.60
2019-02-19T21:58:20.260Z,6.63
2019-02-19T22:03:39.821Z,6.73
2019-02-19T22:08:58.542Z,6.97
2019-02-19T22:14:17.190Z,6.37
2019-02-19T22:19:35.874Z,7.03
2019-02-19T22:24:56.083Z,7.03
2019-02-19T22:30:14.716Z,6.67
2019-02-19T22:35:36.033Z,6.93
2019-02-19T22:40:55.440Z,6.80
2019-02-19T22:46:15.935Z,6.60
2019-02-19T22:51:34.552Z,7.23
2019-02-19T22:56:53.708Z,7.43
2019-02-19T23:02:14.490Z,10.13
2019-02-19T23:07:33.277Z,9.25
2019-02-19T23:12:52.099Z,8.63
2019-02-19T23:18:10.729Z,8.80
2019-02-19T23:23:29.477Z,9.33
2019-02-19T23:28:48.118Z,8.17
2019-02-19T23:34:06.668Z,7.90
2019-02-19T23:39:25.572Z,6.17
2019-02-19T23:44:44.062Z,6.93
2019-02-19T23:50:02.674Z,6.27
2019-02-19T23:55:21.225Z,6.13
